Time;durP1;ratioP1;P1;durP2;ratioP2;P2;SDS_P1;SDS_P2;PMS_P1;PMS_P2;Temp;Humidity;BMP_temperature;BMP_pressure;BME280_temperature;BME280_humidity;BME280_pressure;Samples;Min_cycle;Max_cycle;Signal;HPM_P1;HPM_P2
2022/09/02 00:00:07;;;;;;;3.08;2.30;;;19.30;87.40;;;;;;5059756;28;20032;-68
2022/09/02 00:02:33;;;;;;;3.80;2.42;;;19.30;87.40;;;;;;5058432;28;20025;-67
2022/09/02 00:04:58;;;;;;;4.00;2.47;;;19.30;87.40;;;;;;5044838;28;20029;-67
2022/09/02 00:07:39;;;;;;;4.47;2.47;;;19.20;87.30;;;;;;5033114;28;20030;-68
2022/09/02 00:10:17;;;;;;;2.85;2.47;;;19.20;87.40;;;;;;5033659;28;20029;-68
2022/09/02 00:12:54;;;;;;;5.60;2.20;;;19.30;87.40;;;;;;5032313;28;20075;-68
2022/09/02 00:19:10;;;;;;;5.28;2.63;;;19.20;87.40;;;;;;5032771;28;20056;-68
2022/09/02 00:22:25;;;;;;;3.33;2.45;;;19.20;87.40;;;;;;5053231;28;20029;-68
2022/09/02 00:25:03;;;;;;;3.47;2.20;;;19.20;87.30;;;;;;5071062;28;20040;-67
2022/09/02 00:27:46;;;;;;;7.07;2.28;;;19.20;87.40;;;;;;5071169;28;20052;-68
2022/09/02 00:30:20;;;;;;;3.75;2.60;;;19.20;87.30;;;;;;5071736;28;20679;-68
2022/09/02 00:33:23;;;;;;;4.50;2.17;;;19.20;87.40;;;;;;5071254;28;20024;-67
2022/09/02 00:35:49;;;;;;;5.15;2.30;;;19.20;87.40;;;;;;5038905;28;20451;-68
2022/09/02 00:38:15;;;;;;;4.28;2.50;;;19.20;87.40;;;;;;5061292;28;20469;-68
2022/09/02 00:40:49;;;;;;;4.43;2.20;;;19.20;87.30;;;;;;5062385;28;20074;-67
2022/09/02 00:43:37;;;;;;;3.50;2.47;;;19.20;87.40;;;;;;5059698;28;20029;-67
2022/09/02 00:46:03;;;;;;;5.95;2.13;;;19.10;87.30;;;;;;5048663;28;20071;-67
2022/09/02 00:48:28;;;;;;;2.88;2.58;;;19.20;87.30;;;;;;5057503;28;20064;-68
2022/09/02 00:50:54;;;;;;;4.70;2.20;;;19.10;87.40;;;;;;5054789;28;20064;-67
2022/09/02 00:53:20;;;;;;;2.70;2.15;;;19.20;87.40;;;;;;5050366;28;20013;-67
2022/09/02 00:55:49;;;;;;;3.92;2.10;;;19.10;87.30;;;;;;5048459;28;20025;-67
2022/09/02 00:58:23;;;;;;;4.07;1.98;;;19.10;87.40;;;;;;5045935;28;20029;-67
2022/09/02 01:00:55;;;;;;;2.25;2.05;;;19.10;87.40;;;;;;5054817;28;20060;-68
2022/09/02 01:03:22;;;;;;;2.17;1.95;;;19.10;87.30;;;;;;5050746;28;20050;-67
2022/09/02 01:05:51;;;;;;;4.00;2.28;;;19.10;87.40;;;;;;5047177;28;20032;-67
2022/09/02 01:08:19;;;;;;;6.72;2.38;;;19.10;87.40;;;;;;5050609;28;20571;-68
2022/09/02 01:10:46;;;;;;;2.75;2.25;;;19.10;87.40;;;;;;5049601;28;20470;-68
2022/09/02 01:13:17;;;;;;;4.32;2.30;;;19.10;87.30;;;;;;5049412;28;20140;-67
2022/09/02 01:15:47;;;;;;;2.03;1.85;;;19.10;87.30;;;;;;5047980;28;20116;-67
2022/09/02 01:18:17;;;;;;;3.10;2.00;;;19.10;87.40;;;;;;5064828;28;20508;-67
2022/09/02 01:20:43;;;;;;;2.15;1.95;;;19.10;87.40;;;;;;5039176;28;20048;-67
2022/09/02 01:23:10;;;;;;;5.03;2.72;;;19.10;87.40;;;;;;5052561;28;20429;-71
2022/09/02 01:25:36;;;;;;;6.22;2.22;;;19.10;87.40;;;;;;5048485;28;20166;-67
2022/09/02 01:28:09;;;;;;;2.72;2.00;;;19.10;87.40;;;;;;5056446;28;20124;-68
2022/09/02 01:30:37;;;;;;;5.40;2.60;;;19.10;87.40;;;;;;5052006;28;20700;-67
2022/09/02 01:33:03;;;;;;;3.88;2.35;;;19.10;87.40;;;;;;5067481;28;20024;-67
2022/09/02 01:35:29;;;;;;;4.50;2.53;;;19.10;87.40;;;;;;5053951;28;20059;-67
2022/09/02 01:37:57;;;;;;;4.43;2.08;;;19.10;87.40;;;;;;5070647;28;20029;-67
2022/09/02 01:40:24;;;;;;;3.50;2.20;;;19.00;87.30;;;;;;5054091;28;20017;-69
2022/09/02 01:42:54;;;;;;;2.72;2.20;;;19.10;87.40;;;;;;5057134;28;20032;-67
2022/09/02 01:45:20;;;;;;;3.83;2.53;;;19.10;87.40;;;;;;5054287;28;20486;-68
2022/09/02 01:47:46;;;;;;;4.93;2.58;;;19.10;87.40;;;;;;5057758;28;20397;-67
2022/09/02 01:50:12;;;;;;;3.65;2.45;;;19.00;88.10;;;;;;5054597;28;20033;-67
2022/09/02 01:52:38;;;;;;;3.22;2.30;;;19.00;87.30;;;;;;5060623;28;20025;-67
2022/09/02 01:55:04;;;;;;;3.70;2.30;;;19.00;87.40;;;;;;5051359;28;20375;-68
2022/09/02 01:57:30;;;;;;;4.20;2.33;;;19.00;87.30;;;;;;5045214;28;20036;-67
2022/09/02 01:59:56;;;;;;;5.95;2.45;;;19.00;87.40;;;;;;5051494;28;20024;-67
2022/09/02 02:02:22;;;;;;;4.35;2.33;;;19.00;87.40;;;;;;5060303;28;20060;-68
2022/09/02 02:04:48;;;;;;;5.53;2.38;;;19.00;87.30;;;;;;5051457;28;20036;-67
2022/09/02 02:07:17;;;;;;;4.35;2.00;;;19.00;87.30;;;;;;5041841;28;20028;-68
2022/09/02 02:09:42;;;;;;;7.22;2.17;;;19.00;87.30;;;;;;5054238;28;20024;-68
2022/09/02 02:12:08;;;;;;;4.28;2.50;;;19.00;87.40;;;;;;5056460;28;20386;-67
2022/09/02 02:14:35;;;;;;;3.25;2.47;;;19.00;87.30;;;;;;5058764;28;20021;-67
2022/09/02 02:17:01;;;;;;;3.17;2.22;;;19.00;87.40;;;;;;5059242;28;20031;-67
2022/09/02 02:19:27;;;;;;;4.95;2.50;;;19.00;87.40;;;;;;5038185;28;20032;-68
2022/09/02 02:21:53;;;;;;;3.25;2.22;;;19.00;87.40;;;;;;5055925;28;20063;-67
2022/09/02 02:24:18;;;;;;;3.40;2.17;;;19.00;88.10;;;;;;5045124;28;20217;-67
2022/09/02 02:26:45;;;;;;;7.35;2.50;;;19.00;87.40;;;;;;5047246;28;20528;-67
2022/09/02 02:29:11;;;;;;;2.80;2.35;;;19.00;87.40;;;;;;5051770;28;20021;-68
2022/09/02 02:31:36;;;;;;;4.80;2.20;;;18.90;87.30;;;;;;5059660;28;20032;-68
2022/09/02 02:34:03;;;;;;;6.32;2.60;;;18.90;87.20;;;;;;5041602;28;20385;-67
2022/09/02 02:36:28;;;;;;;6.13;2.10;;;18.90;87.30;;;;;;5052440;28;20027;-68
2022/09/02 02:38:54;;;;;;;3.92;2.38;;;18.90;87.30;;;;;;5058612;28;20025;-67
2022/09/02 02:41:20;;;;;;;9.07;2.78;;;18.90;87.30;;;;;;5051834;28;20032;-67
2022/09/02 02:43:46;;;;;;;4.55;2.33;;;18.90;87.30;;;;;;5058359;28;20028;-68
2022/09/02 02:46:13;;;;;;;5.38;2.70;;;18.90;87.30;;;;;;5062147;28;20077;-68
2022/09/02 02:48:38;;;;;;;3.03;2.17;;;18.90;87.30;;;;;;5060361;28;20561;-67
2022/09/02 02:51:05;;;;;;;5.90;2.47;;;18.90;87.30;;;;;;5042749;28;20112;-67
2022/09/02 02:53:32;;;;;;;3.55;2.75;;;18.90;87.30;;;;;;5059830;28;20115;-67
2022/09/02 02:55:58;;;;;;;3.47;2.22;;;18.90;87.20;;;;;;5048298;28;20143;-67
2022/09/02 02:58:24;;;;;;;6.93;2.47;;;18.90;87.30;;;;;;5056809;28;20021;-68
2022/09/02 03:00:50;;;;;;;2.92;2.38;;;18.90;87.30;;;;;;5051341;28;20355;-68
2022/09/02 03:03:18;;;;;;;4.82;2.72;;;18.90;87.30;;;;;;5041916;28;20383;-67
2022/09/02 03:09:05;;;;;;;9.25;2.90;;;18.90;87.30;;;;;;5063239;23;20048;-63
2022/09/02 03:11:31;;;;;;;6.07;2.50;;;18.90;87.30;;;;;;5038877;28;20029;-63
2022/09/02 03:13:58;;;;;;;2.97;2.17;;;18.80;87.20;;;;;;5023517;28;20066;-63
2022/09/02 03:16:24;;;;;;;5.45;2.42;;;18.90;87.30;;;;;;5038195;28;20029;-63
2022/09/02 03:18:49;;;;;;;6.20;2.33;;;18.90;87.30;;;;;;5017719;28;20052;-63
2022/09/02 03:21:16;;;;;;;5.10;2.22;;;18.90;87.30;;;;;;5038465;28;20025;-63
2022/09/02 03:23:43;;;;;;;5.53;2.50;;;18.90;87.20;;;;;;5026483;28;20030;-63
2022/09/02 03:26:15;;;;;;;3.67;2.17;;;18.90;87.30;;;;;;5014244;28;20132;-64
2022/09/02 03:28:41;;;;;;;5.00;2.53;;;18.80;87.20;;;;;;5038806;28;20032;-64
2022/09/02 03:31:11;;;;;;;4.90;2.35;;;18.80;87.20;;;;;;5042160;28;20029;-63
2022/09/02 03:33:37;;;;;;;4.65;2.30;;;18.90;87.20;;;;;;5036864;28;20107;-63
2022/09/02 03:36:03;;;;;;;3.28;2.40;;;18.90;87.30;;;;;;5031230;28;20478;-63
2022/09/02 03:38:28;;;;;;;3.83;2.28;;;18.80;87.20;;;;;;5031702;28;20033;-63
2022/09/02 03:40:54;;;;;;;3.25;2.78;;;18.90;87.20;;;;;;5038275;28;20017;-64
2022/09/02 03:43:19;;;;;;;4.32;2.60;;;18.90;87.20;;;;;;5020625;28;20021;-64
2022/09/02 03:45:45;;;;;;;3.08;2.60;;;18.80;87.10;;;;;;5025632;28;20044;-63
2022/09/02 03:48:12;;;;;;;4.07;2.40;;;18.80;87.20;;;;;;5039721;28;20378;-63
2022/09/02 03:50:40;;;;;;;3.55;2.63;;;18.80;87.20;;;;;;5039267;28;20044;-63
2022/09/02 03:53:07;;;;;;;4.72;2.20;;;18.80;87.20;;;;;;5040990;28;20043;-63
2022/09/02 03:55:35;;;;;;;2.83;2.22;;;18.80;87.10;;;;;;5032305;28;20037;-63
2022/09/02 03:58:00;;;;;;;4.00;2.47;;;18.80;87.10;;;;;;5019796;28;20026;-64
2022/09/02 04:00:30;;;;;;;3.38;2.42;;;18.80;87.20;;;;;;5028708;28;20021;-63
2022/09/02 04:02:57;;;;;;;;;;;18.80;87.20;;;;;;5038753;28;20489;-63
2022/09/02 04:05:23;;;;;;;3.85;2.50;;;18.80;87.10;;;;;;5042165;28;19916;-65
2022/09/02 04:07:51;;;;;;;4.03;2.28;;;18.80;87.10;;;;;;5019293;28;20398;-63
2022/09/02 04:10:17;;;;;;;4.05;2.55;;;18.80;87.20;;;;;;5043465;28;20211;-65
2022/09/02 04:12:43;;;;;;;4.32;2.67;;;18.80;87.10;;;;;;5049981;28;20021;-64
2022/09/02 04:15:10;;;;;;;3.08;2.38;;;18.80;87.10;;;;;;5050127;28;20471;-63
2022/09/02 04:17:37;;;;;;;4.57;2.50;;;18.70;87.00;;;;;;5053473;28;20039;-64
2022/09/02 04:20:05;;;;;;;4.43;2.50;;;18.70;87.10;;;;;;5065506;28;20116;-63
2022/09/02 04:22:31;;;;;;;4.30;2.50;;;18.80;87.10;;;;;;5049525;28;20567;-63
2022/09/02 04:24:57;;;;;;;4.05;2.78;;;18.70;87.00;;;;;;5038230;28;20045;-63
2022/09/02 04:27:23;;;;;;;5.35;2.70;;;18.70;87.10;;;;;;5053209;28;20033;-63
2022/09/02 04:29:48;;;;;;;5.10;2.90;;;18.70;87.10;;;;;;5049638;28;20354;-63
2022/09/02 04:32:14;;;;;;;5.82;2.80;;;18.70;87.10;;;;;;5031854;28;20071;-64
2022/09/02 04:34:39;;;;;;;4.75;2.60;;;18.70;87.10;;;;;;5049800;28;20025;-63
2022/09/02 04:37:05;;;;;;;2.55;2.25;;;18.70;87.10;;;;;;5048930;28;20025;-63
2022/09/02 04:39:31;;;;;;;5.25;2.50;;;18.70;87.10;;;;;;5056998;28;20552;-64
2022/09/02 04:41:56;;;;;;;2.97;2.65;;;18.70;87.10;;;;;;5051417;28;20100;-63
2022/09/02 04:44:22;;;;;;;4.07;2.80;;;18.70;87.10;;;;;;5050036;28;20476;-63
2022/09/02 04:46:48;;;;;;;4.95;2.70;;;18.70;87.10;;;;;;5048772;28;20533;-64
2022/09/02 04:49:13;;;;;;;5.00;2.45;;;18.70;87.10;;;;;;5050310;28;20036;-63
2022/09/02 04:51:39;;;;;;;3.28;2.17;;;18.70;87.10;;;;;;5049231;28;20032;-63
2022/09/02 04:54:06;;;;;;;3.50;2.67;;;18.70;87.10;;;;;;5046179;28;20053;-63
2022/09/02 04:56:32;;;;;;;6.47;2.90;;;18.70;87.10;;;;;;5030740;28;20436;-63
2022/09/02 04:58:58;;;;;;;5.93;2.72;;;18.70;87.10;;;;;;5050057;28;20151;-63
2022/09/02 05:01:31;;;;;;;4.53;2.70;;;18.70;87.00;;;;;;5064561;28;20071;-63
2022/09/02 05:03:56;;;;;;;2.55;2.30;;;18.70;87.00;;;;;;5049324;28;20479;-63
2022/09/02 05:06:27;;;;;;;3.38;2.20;;;18.70;87.10;;;;;;5048633;28;20152;-64
2022/09/02 05:08:55;;;;;;;4.90;2.75;;;18.70;87.10;;;;;;5057976;28;20131;-63
2022/09/02 05:11:27;;;;;;;6.18;2.90;;;18.70;87.00;;;;;;5053136;28;20025;-64
2022/09/02 05:13:55;;;;;;;3.13;2.55;;;18.70;86.90;;;;;;5054092;28;20045;-63
2022/09/02 05:16:39;;;;;;;7.72;2.50;;;18.70;86.90;;;;;;5031979;28;20383;-64
2022/09/02 05:19:07;;;;;;;3.33;2.33;;;18.70;87.00;;;;;;5053570;28;20391;-64
2022/09/02 05:21:33;;;;;;;3.28;2.25;;;18.70;86.00;;;;;;5035262;28;20398;-64
2022/09/02 05:23:58;;;;;;;6.60;2.88;;;18.60;86.10;;;;;;5039531;28;20028;-64
2022/09/02 05:26:24;;;;;;;20.98;10.13;;;18.60;85.80;;;;;;5056146;28;20041;-64
2022/09/02 05:28:50;;;;;;;6.35;2.33;;;18.60;85.60;;;;;;5053757;28;20033;-64
2022/09/02 05:31:18;;;;;;;4.30;2.70;;;18.60;85.60;;;;;;5052903;28;20016;-64
2022/09/02 05:33:44;;;;;;;3.85;2.30;;;18.60;85.50;;;;;;5052576;28;20485;-64
2022/09/02 05:36:15;;;;;;;4.95;2.78;;;18.60;85.50;;;;;;5053017;28;20123;-65
2022/09/02 05:38:42;;;;;;;5.10;2.30;;;18.60;85.50;;;;;;5037085;28;20390;-64
2022/09/02 05:41:11;;;;;;;4.18;2.25;;;18.60;85.50;;;;;;5055815;28;20025;-64
2022/09/02 05:43:37;;;;;;;4.35;2.00;;;18.60;85.50;;;;;;5035102;28;20483;-64
2022/09/02 05:46:06;;;;;;;6.05;2.33;;;18.60;85.40;;;;;;5058862;28;20036;-64
2022/09/02 05:51:17;;;;;;;6.53;2.30;;;18.70;85.00;;;;;;5053107;28;20044;-64
2022/09/02 05:53:43;;;;;;;2.78;1.95;;;18.70;84.70;;;;;;5052141;28;20455;-64
2022/09/02 05:56:09;;;;;;;4.53;2.17;;;18.70;84.50;;;;;;5055115;28;20117;-65
2022/09/02 05:58:35;;;;;;;5.97;2.75;;;18.70;84.40;;;;;;5061170;28;20103;-64
2022/09/02 06:01:10;;;;;;;3.42;2.25;;;18.70;84.40;;;;;;5058801;28;20416;-64
2022/09/02 06:03:36;;;;;;;2.80;2.00;;;18.80;84.40;;;;;;5062480;28;20074;-64
2022/09/02 06:06:02;;;;;;;5.72;2.60;;;18.80;84.40;;;;;;5041974;28;20067;-64
2022/09/02 06:08:28;;;;;;;5.03;2.70;;;18.80;84.30;;;;;;5053709;28;20020;-64
2022/09/02 06:10:54;;;;;;;6.25;2.13;;;18.80;84.20;;;;;;5067536;28;20544;-64
2022/09/02 06:13:21;;;;;;;6.68;2.63;;;18.90;84.30;;;;;;5052121;28;20105;-64
2022/09/02 06:15:49;;;;;;;4.80;1.90;;;18.90;84.30;;;;;;5052528;28;20029;-64
2022/09/02 06:18:15;;;;;;;3.08;2.53;;;18.90;84.20;;;;;;5061628;28;20025;-64
2022/09/02 06:20:43;;;;;;;3.10;2.10;;;19.00;84.40;;;;;;5057359;28;20025;-64
2022/09/02 06:23:08;;;;;;;4.05;2.25;;;19.00;84.30;;;;;;5051766;28;20060;-64
2022/09/02 06:25:39;;;;;;;3.00;2.70;;;19.00;84.40;;;;;;5045980;28;20065;-64
2022/09/02 06:28:05;;;;;;;3.03;2.40;;;19.10;84.50;;;;;;5052673;28;20048;-64
2022/09/02 06:30:32;;;;;;;3.35;2.10;;;19.10;84.30;;;;;;5051023;28;20091;-65
2022/09/02 06:32:58;;;;;;;5.05;2.30;;;19.20;84.40;;;;;;5021390;28;20116;-64
2022/09/02 06:35:24;;;;;;;6.28;2.85;;;19.20;84.40;;;;;;5051369;28;20561;-64
2022/09/02 06:37:50;;;;;;;5.70;2.33;;;19.30;84.40;;;;;;5052938;28;20098;-64
2022/09/02 06:40:17;;;;;;;5.30;2.75;;;19.30;84.40;;;;;;5041649;28;20382;-64
2022/09/02 06:42:43;;;;;;;3.80;2.72;;;19.30;84.40;;;;;;5063241;28;20031;-65
2022/09/02 06:45:08;;;;;;;3.53;2.72;;;19.40;84.50;;;;;;5052812;28;20029;-64
2022/09/02 06:47:34;;;;;;;4.47;2.38;;;19.40;84.50;;;;;;5057923;28;20025;-64
2022/09/02 06:50:00;;;;;;;5.13;2.50;;;19.50;84.60;;;;;;5054425;28;20024;-64
2022/09/02 07:06:21;;;;;;;3.45;2.40;;;19.90;84.60;;;;;;5052647;28;20428;-64
2022/09/02 07:08:48;;;;;;;6.15;2.50;;;19.90;84.30;;;;;;4985887;28;20104;-64
2022/09/02 07:11:20;;;;;;;6.13;2.70;;;20.00;84.20;;;;;;4993200;28;20530;-64
2022/09/02 07:13:46;;;;;;;6.82;2.42;;;20.10;84.00;;;;;;4991766;28;20124;-64
2022/09/02 07:16:12;;;;;;;6.40;2.88;;;20.10;83.70;;;;;;4999498;28;20170;-66
2022/09/02 07:18:37;;;;;;;7.88;2.83;;;20.20;83.60;;;;;;4996272;28;20516;-63
2022/09/02 07:21:03;;;;;;;7.38;2.80;;;20.20;83.20;;;;;;4997892;28;20391;-63
2022/09/02 07:23:29;;;;;;;8.45;3.00;;;20.20;82.90;;;;;;4997645;28;20034;-63
2022/09/02 07:25:55;;;;;;;3.35;2.42;;;20.30;82.60;;;;;;5010759;28;20034;-63
2022/09/02 07:28:22;;;;;;;2.92;2.55;;;20.30;82.30;;;;;;4990310;28;20026;-64
2022/09/02 07:30:47;;;;;;;5.93;2.78;;;20.40;82.90;;;;;;5000108;28;20567;-64
2022/09/02 07:33:14;;;;;;;4.18;2.45;;;20.40;81.90;;;;;;5007447;28;20105;-63
2022/09/02 07:35:44;;;;;;;4.32;2.83;;;20.40;81.70;;;;;;5000796;28;20034;-63
2022/09/02 07:38:10;;;;;;;5.13;2.55;;;20.50;81.60;;;;;;4999069;28;20038;-64
2022/09/02 07:40:37;;;;;;;7.25;2.92;;;20.50;81.50;;;;;;4994875;28;20073;-63
2022/09/02 07:43:05;;;;;;;4.20;2.30;;;20.50;81.40;;;;;;5002621;28;20420;-64
2022/09/02 07:45:31;;;;;;;6.60;2.38;;;20.60;81.30;;;;;;5050267;28;20052;-63
2022/09/02 07:47:58;;;;;;;2.83;2.50;;;20.60;81.10;;;;;;5051436;28;20313;-63
2022/09/02 07:50:25;;;;;;;5.85;2.92;;;20.70;80.90;;;;;;5033881;28;20025;-64
2022/09/02 07:52:53;;;;;;;3.47;2.75;;;20.80;80.80;;;;;;5051067;28;20036;-63
2022/09/02 07:55:20;;;;;;;5.80;2.47;;;20.80;80.70;;;;;;5061974;28;20021;-64
2022/09/02 07:57:50;;;;;;;5.28;2.58;;;20.80;80.50;;;;;;5030977;28;20548;-64
2022/09/02 08:00:19;;;;;;;8.55;2.15;;;20.80;80.40;;;;;;5033123;28;20367;-64
2022/09/02 08:02:45;;;;;;;4.93;2.83;;;20.90;80.30;;;;;;5033341;28;20025;-63
2022/09/02 08:05:12;;;;;;;3.92;2.28;;;20.90;80.10;;;;;;5052587;28;20060;-64
2022/09/02 08:07:38;;;;;;;4.45;2.55;;;20.90;80.00;;;;;;5051322;28;20083;-63
2022/09/02 08:10:08;;;;;;;2.88;2.60;;;21.00;79.80;;;;;;5052977;28;20386;-64
2022/09/02 08:12:34;;;;;;;4.80;2.70;;;21.00;79.70;;;;;;5023963;28;20045;-63
2022/09/02 08:14:59;;;;;;;4.93;2.60;;;21.10;79.50;;;;;;5053356;28;20383;-63
2022/09/02 08:17:25;;;;;;;2.72;2.40;;;21.10;79.30;;;;;;5050446;28;20484;-63
2022/09/02 08:19:51;;;;;;;7.20;2.63;;;21.10;79.30;;;;;;5041514;28;20080;-63
2022/09/02 08:22:16;;;;;;;4.20;2.72;;;21.20;79.30;;;;;;5047772;28;20358;-64
2022/09/02 08:24:42;;;;;;;6.82;2.20;;;21.10;79.10;;;;;;5035492;28;20127;-64
2022/09/02 08:27:08;;;;;;;4.47;2.15;;;21.20;79.10;;;;;;5046562;28;20083;-64
2022/09/02 08:29:34;;;;;;;3.10;2.47;;;21.20;79.10;;;;;;5025456;28;20341;-63
2022/09/02 08:32:00;;;;;;;4.55;1.85;;;21.20;78.90;;;;;;5045424;28;20017;-63
2022/09/02 08:34:26;;;;;;;4.25;2.28;;;21.20;78.80;;;;;;5056739;28;20477;-64
2022/09/02 08:36:51;;;;;;;7.35;2.40;;;21.30;78.90;;;;;;5050278;28;20096;-64
2022/09/02 08:39:17;;;;;;;2.67;2.25;;;21.30;78.70;;;;;;5029621;28;20033;-64
2022/09/02 08:42:07;;;;;;;7.38;2.92;;;21.30;79.40;;;;;;5060649;28;20029;-64
2022/09/02 08:44:36;;;;;;;4.18;2.30;;;21.30;78.50;;;;;;5067938;28;20098;-64
2022/09/02 08:47:05;;;;;;;3.28;2.33;;;21.30;78.50;;;;;;5060957;28;20434;-63
2022/09/02 08:49:45;;;;;;;3.30;2.53;;;21.30;78.30;;;;;;5054269;28;20021;-64
2022/09/02 08:52:14;;;;;;;;;;;21.40;78.30;;;;;;5055018;28;20068;-64
2022/09/02 08:54:54;;;;;;;3.90;2.67;;;21.40;78.30;;;;;;5066183;28;19918;-64
2022/09/02 08:57:26;;;;;;;3.17;2.42;;;21.40;78.30;;;;;;5054939;28;20112;-63
2022/09/02 08:59:55;;;;;;;4.43;2.28;;;21.50;78.20;;;;;;5036540;28;20031;-64
2022/09/02 09:02:42;;;;;;;3.33;2.33;;;21.40;78.00;;;;;;5053888;28;20024;-64
2022/09/02 09:05:24;;;;;;;4.07;1.98;;;21.50;78.10;;;;;;5052510;28;20040;-63
2022/09/02 09:08:27;;;;;;;5.50;2.33;;;21.50;78.00;;;;;;5050554;28;20029;-63
2022/09/02 09:11:21;;;;;;;4.38;2.33;;;21.50;77.90;;;;;;5031851;28;20497;-63
2022/09/02 09:13:57;;;;;;;2.55;1.95;;;21.50;78.00;;;;;;5034383;28;20093;-63
2022/09/02 09:16:40;;;;;;;5.25;1.95;;;21.50;78.00;;;;;;5050408;28;20021;-63
2022/09/02 09:19:20;;;;;;;4.93;2.13;;;21.50;77.90;;;;;;5053949;28;20163;-63
2022/09/02 09:21:46;;;;;;;5.00;2.15;;;21.50;77.90;;;;;;5024533;28;20026;-63
2022/09/02 09:24:44;;;;;;;1.88;1.58;;;21.50;77.80;;;;;;5054428;28;20358;-66
2022/09/02 09:27:19;;;;;;;2.83;1.80;;;21.50;77.70;;;;;;4955226;28;20046;-63
2022/09/02 09:29:45;;;;;;;3.75;1.98;;;21.50;77.80;;;;;;4964468;28;20263;-64
2022/09/02 09:32:18;;;;;;;3.50;1.90;;;21.50;77.80;;;;;;4953337;28;20031;-65
2022/09/02 09:34:56;;;;;;;4.32;2.00;;;21.50;77.80;;;;;;4956735;28;20027;-63
2022/09/02 09:37:38;;;;;;;2.55;1.90;;;21.50;77.80;;;;;;4947323;28;20074;-64
2022/09/02 09:40:24;;;;;;;8.80;2.10;;;21.50;77.80;;;;;;4959810;28;20076;-63
2022/09/02 09:43:12;;;;;;;3.42;2.28;;;21.50;77.90;;;;;;4956292;28;20186;-63
2022/09/02 09:45:45;;;;;;;8.07;2.10;;;21.40;77.90;;;;;;4947100;28;20557;-64
2022/09/02 09:48:26;;;;;;;2.35;2.13;;;21.40;77.90;;;;;;4953918;28;20043;-65
2022/09/02 09:50:54;;;;;;;8.48;1.98;;;21.40;77.90;;;;;;4936524;29;20035;-64
2022/09/02 09:53:25;;;;;;;1.77;1.52;;;21.40;78.00;;;;;;4952303;28;20118;-63
2022/09/02 09:56:21;;;;;;;3.53;1.80;;;21.30;77.90;;;;;;4952763;28;20171;-63
2022/09/02 09:58:48;;;;;;;4.13;1.80;;;21.30;78.20;;;;;;4957584;28;20034;-64
2022/09/02 10:01:33;;;;;;;3.30;1.67;;;21.30;78.30;;;;;;4961026;28;20058;-63
2022/09/02 10:04:08;;;;;;;3.47;1.83;;;21.30;78.30;;;;;;5052286;28;20032;-63
2022/09/02 10:06:43;;;;;;;2.85;1.63;;;21.20;78.10;;;;;;5033906;28;20501;-64
2022/09/02 10:09:29;;;;;;;3.83;1.65;;;21.20;78.10;;;;;;5052331;28;20036;-63
2022/09/02 10:12:01;;;;;;;2.00;1.75;;;21.20;78.00;;;;;;5046631;28;20072;-63
2022/09/02 10:14:41;;;;;;;2.85;1.98;;;21.10;77.90;;;;;;5064888;28;20025;-64
2022/09/02 10:17:34;;;;;;;8.82;1.85;;;21.10;77.70;;;;;;5066349;28;20036;-64
2022/09/02 10:20:13;;;;;;;1.98;1.55;;;21.10;77.60;;;;;;5052694;28;20032;-63
2022/09/02 10:23:07;;;;;;;3.17;1.77;;;21.10;77.70;;;;;;5034610;28;20025;-64
2022/09/02 10:25:39;;;;;;;1.65;1.42;;;21.00;77.70;;;;;;5047660;28;20273;-64
2022/09/02 10:28:29;;;;;;;6.38;1.50;;;21.00;77.70;;;;;;5050438;28;20389;-63
2022/09/02 10:31:25;;;;;;;1.63;1.45;;;21.00;77.50;;;;;;5043018;28;20025;-63
2022/09/02 10:34:09;;;;;;;2.35;1.35;;;20.90;77.50;;;;;;5051281;28;20059;-64
2022/09/02 10:36:46;;;;;;;3.17;1.10;;;20.90;77.50;;;;;;5049037;28;20360;-63
2022/09/02 10:39:36;;;;;;;4.60;1.65;;;20.90;77.50;;;;;;5049891;28;20566;-64
2022/09/02 10:42:09;;;;;;;;;;;20.90;77.50;;;;;;5043436;28;20033;-63
2022/09/02 10:45:12;;;;;;;4.78;1.40;;;20.80;77.50;;;;;;5057324;28;19920;-64
2022/09/02 10:47:39;;;;;;;2.25;1.25;;;20.80;77.60;;;;;;5031324;28;20379;-63
2022/09/02 10:50:19;;;;;;;2.58;1.67;;;20.80;77.60;;;;;;5050041;28;20033;-63
2022/09/02 10:53:11;;;;;;;4.65;1.30;;;20.80;77.50;;;;;;5054222;28;20028;-64
2022/09/02 10:55:59;;;;;;;6.85;1.48;;;20.80;77.60;;;;;;5012492;28;20052;-63
2022/09/02 10:59:01;;;;;;;1.55;1.30;;;20.70;77.50;;;;;;5057500;28;20079;-63
2022/09/02 11:01:34;;;;;;;1.52;1.35;;;20.70;77.40;;;;;;5034133;28;20052;-64
2022/09/02 11:04:29;;;;;;;1.30;1.20;;;20.70;77.60;;;;;;5053936;28;20033;-63
2022/09/02 11:06:56;;;;;;;2.50;1.40;;;20.70;77.70;;;;;;5048702;28;20053;-63
2022/09/02 11:09:42;;;;;;;4.72;1.35;;;20.70;77.50;;;;;;5011263;28;1106490;-64
2022/09/02 11:12:15;;;;;;;1.30;1.20;;;20.70;77.60;;;;;;5043085;28;20029;-63
2022/09/02 11:15:03;;;;;;;2.30;1.35;;;20.60;77.50;;;;;;5049895;28;20116;-63
2022/09/02 11:17:39;;;;;;;2.95;1.48;;;20.60;77.60;;;;;;5053512;28;20561;-63
2022/09/02 11:20:14;;;;;;;2.45;1.30;;;20.60;77.80;;;;;;5043355;28;20024;-63
2022/09/02 11:23:08;;;;;;;3.92;1.52;;;20.60;78.00;;;;;;5052043;28;20033;-63
2022/09/02 11:25:38;;;;;;;1.48;1.10;;;20.60;78.00;;;;;;5005357;28;20041;-64
2022/09/02 11:28:16;;;;;;;;;;;20.60;78.10;;;;;;5051748;28;20418;-64
2022/09/02 11:30:48;;;;;;;1.55;1.25;;;20.60;78.10;;;;;;5050273;28;19904;-64
2022/09/02 11:33:49;;;;;;;1.25;1.15;;;20.60;78.40;;;;;;5044143;28;20091;-64
2022/09/02 11:36:16;;;;;;;2.50;1.30;;;20.60;78.50;;;;;;4951749;28;20114;-64
2022/09/02 11:38:53;;;;;;;4.43;1.20;;;20.60;78.70;;;;;;4940333;29;20031;-64
2022/09/02 11:41:27;;;;;;;2.67;1.20;;;20.60;78.80;;;;;;4938637;29;20043;-64
2022/09/02 11:44:14;;;;;;;3.72;1.40;;;20.60;79.00;;;;;;4952998;28;21828;-64
2022/09/02 11:47:02;;;;;;;3.22;1.40;;;20.50;79.00;;;;;;4953577;28;20061;-64
2022/09/02 11:49:46;;;;;;;6.38;1.60;;;20.60;79.10;;;;;;4955071;28;20039;-63
2022/09/02 11:52:41;;;;;;;1.63;1.30;;;20.50;79.10;;;;;;4952315;28;20047;-64
2022/09/02 11:55:23;;;;;;;4.35;1.52;;;20.50;79.10;;;;;;4933782;29;20078;-64
2022/09/02 11:57:56;;;;;;;1.08;1.00;;;20.50;79.20;;;;;;4948915;28;20041;-64
2022/09/02 12:00:54;;;;;;;3.47;1.30;;;20.60;79.30;;;;;;4949725;29;20061;-64
2022/09/02 12:03:28;;;;;;;3.30;1.27;;;20.50;79.40;;;;;;4943906;28;20066;-64
2022/09/02 12:06:09;;;;;;;2.25;1.20;;;20.50;79.30;;;;;;4946257;29;20059;-64
2022/09/02 12:08:35;;;;;;;4.15;1.42;;;20.50;79.40;;;;;;4953744;28;20044;-64
2022/09/02 12:11:05;;;;;;;1.48;1.10;;;20.50;79.40;;;;;;4955356;28;20049;-63
2022/09/02 12:13:42;;;;;;;2.92;1.05;;;20.50;79.40;;;;;;5038069;28;20619;-64
2022/09/02 12:16:19;;;;;;;1.40;0.90;;;20.50;79.50;;;;;;5050510;28;20047;-64
2022/09/02 12:18:54;;;;;;;5.57;1.20;;;20.50;79.50;;;;;;5057739;28;20046;-64
2022/09/02 12:21:24;;;;;;;2.95;1.25;;;20.50;79.50;;;;;;5031437;28;20044;-63
2022/09/02 12:23:53;;;;;;;1.60;1.20;;;20.50;79.40;;;;;;5049352;28;20033;-63
2022/09/02 12:26:21;;;;;;;1.80;1.45;;;20.50;79.50;;;;;;5050205;28;20041;-64
2022/09/02 12:28:47;;;;;;;3.35;1.10;;;20.50;79.40;;;;;;5063379;28;20056;-64
2022/09/02 12:31:19;;;;;;;1.75;1.17;;;20.50;79.40;;;;;;5029720;28;20119;-64
2022/09/02 12:33:50;;;;;;;2.45;1.23;;;20.50;79.60;;;;;;5049505;28;20417;-64
2022/09/02 12:36:38;;;;;;;1.52;1.17;;;20.50;79.60;;;;;;5049198;28;20394;-64
2022/09/02 12:39:26;;;;;;;2.85;1.33;;;20.50;79.60;;;;;;5049601;28;20059;-63
2022/09/02 12:42:08;;;;;;;3.50;1.20;;;20.50;79.60;;;;;;5056842;28;20024;-64
2022/09/02 12:44:58;;;;;;;2.40;1.50;;;20.50;79.50;;;;;;5044191;28;20037;-63
2022/09/02 12:47:45;;;;;;;2.25;1.40;;;20.50;79.40;;;;;;5047568;28;20060;-63
2022/09/02 12:50:21;;;;;;;1.67;1.42;;;20.50;79.60;;;;;;5041379;28;20463;-64
2022/09/02 12:53:12;;;;;;;1.52;1.20;;;20.50;79.60;;;;;;5049401;28;20386;-64
2022/09/02 12:55:39;;;;;;;1.88;1.50;;;20.50;79.50;;;;;;5018860;28;20111;-64
2022/09/02 12:58:10;;;;;;;1.30;1.17;;;20.50;79.50;;;;;;5054324;28;20039;-63
2022/09/02 13:00:44;;;;;;;9.93;1.45;;;20.50;79.50;;;;;;5059092;28;20025;-63
2022/09/02 13:03:37;;;;;;;4.57;1.27;;;20.50;79.60;;;;;;5049534;28;20493;-63
2022/09/02 13:06:20;;;;;;;4.95;1.38;;;20.50;79.60;;;;;;5048688;28;20504;-64
2022/09/02 13:09:07;;;;;;;1.58;1.25;;;20.50;79.50;;;;;;5049078;28;20029;-64
2022/09/02 13:11:58;;;;;;;1.25;1.05;;;20.50;79.60;;;;;;5046078;28;20040;-64
2022/09/02 13:14:57;;;;;;;1.40;1.20;;;20.50;79.70;;;;;;5051679;28;20071;-64
2022/09/02 13:17:55;;;;;;;5.30;1.65;;;20.50;79.70;;;;;;5059361;28;20482;-64
2022/09/02 13:20:55;;;;;;;3.60;1.38;;;20.50;79.80;;;;;;5052585;28;20021;-64
2022/09/02 13:23:27;;;;;;;4.95;1.45;;;20.60;80.00;;;;;;5051402;28;20021;-64
2022/09/02 13:26:02;;;;;;;5.97;1.42;;;20.50;79.80;;;;;;5053828;28;20403;-63
2022/09/02 13:28:30;;;;;;;1.58;1.35;;;20.50;79.90;;;;;;5050593;28;20029;-63
2022/09/02 13:31:22;;;;;;;5.47;1.30;;;20.50;80.00;;;;;;5053956;28;20017;-64
2022/09/02 13:34:01;;;;;;;1.20;1.10;;;20.50;80.00;;;;;;5060057;28;20025;-64
2022/09/02 13:36:36;;;;;;;1.20;1.10;;;20.50;80.00;;;;;;5052739;28;20028;-64